createdAt,value
2022-10-21T09:08:16.898Z,10.17
2022-10-21T09:10:57.585Z,9.33
2022-10-21T09:13:40.334Z,9.10
2022-10-21T09:16:14.549Z,6.77
2022-10-21T09:18:52.733Z,8.07
2022-10-21T09:21:30.205Z,7.77
2022-10-21T09:24:07.464Z,11.70
2022-10-21T09:26:41.753Z,7.67
2022-10-21T09:29:26.413Z,7.60
2022-10-21T09:32:02.078Z,8.83
2022-10-21T09:34:41.979Z,7.67
2022-10-21T09:37:17.745Z,7.87
2022-10-21T09:39:52.234Z,8.93
2022-10-21T09:42:35.743Z,7.87
2022-10-21T09:45:20.050Z,8.13
2022-10-21T09:47:52.907Z,10.03
2022-10-21T09:50:21.389Z,11.03
2022-10-21T09:52:57.815Z,12.53
2022-10-21T09:55:28.276Z,9.40
2022-10-21T09:58:00.282Z,9.00
2022-10-21T10:00:47.153Z,12.27
2022-10-21T10:03:31.099Z,12.30
2022-10-21T10:05:59.465Z,15.63
2022-10-21T10:08:37.697Z,11.67
2022-10-21T10:11:15.540Z,13.60
2022-10-21T10:13:45.517Z,12.97
2022-10-21T10:16:17.062Z,11.30
2022-10-21T10:18:46.223Z,12.50
2022-10-21T10:21:15.445Z,11.10
2022-10-21T10:23:48.958Z,12.40
2022-10-21T10:26:27.595Z,10.63
2022-10-21T10:28:58.783Z,11.80
2022-10-21T10:31:31.165Z,13.40
2022-10-21T10:34:03.529Z,11.53
2022-10-21T10:36:34.589Z,12.27
2022-10-21T10:39:04.694Z,19.40
2022-10-21T10:41:38.303Z,11.77
2022-10-21T10:44:20.997Z,11.60
2022-10-21T10:46:55.727Z,11.27
2022-10-21T10:49:24.459Z,15.77
2022-10-21T10:52:07.877Z,15.70
2022-10-21T10:54:36.803Z,11.30
2022-10-21T10:57:10.407Z,12.50
2022-10-21T10:59:43.266Z,12.17
2022-10-21T11:02:28.963Z,10.67
2022-10-21T11:05:19.571Z,9.63
2022-10-21T11:07:51.055Z,14.47
2022-10-21T11:10:31.482Z,13.30
2022-10-21T11:13:01.960Z,10.63
2022-10-21T11:15:42.427Z,11.30
2022-10-21T11:18:25.605Z,9.80
2022-10-21T11:21:01.395Z,11.23
2022-10-21T11:23:43.393Z,9.93
2022-10-21T11:26:19.701Z,9.63
2022-10-21T11:28:59.220Z,8.17
2022-10-21T11:31:59.644Z,7.63
2022-10-21T11:34:38.260Z,12.43
2022-10-21T11:37:19.332Z,10.80
2022-10-21T11:39:54.211Z,8.57
2022-10-21T11:42:26.803Z,7.90
2022-10-21T11:45:11.131Z,10.80
2022-10-21T11:47:47.078Z,8.20
2022-10-21T11:50:22.365Z,8.17
2022-10-21T11:53:12.669Z,8.63
2022-10-21T11:55:48.080Z,7.00
2022-10-21T11:58:30.917Z,6.57
2022-10-21T12:01:15.904Z,7.30
2022-10-21T12:04:11.266Z,8.73
2022-10-21T12:06:46.454Z,7.60
2022-10-21T12:09:20.190Z,6.80
2022-10-21T12:11:53.493Z,9.00
2022-10-21T12:14:31.103Z,6.57
2022-10-21T12:17:06.380Z,9.50
2022-10-21T12:19:35.605Z,5.77
2022-10-21T12:22:04.027Z,8.87
2022-10-21T12:24:44.940Z,4.60
2022-10-21T12:27:20.279Z,10.27
2022-10-21T12:30:02.303Z,6.50
2022-10-21T12:32:40.494Z,7.63
2022-10-21T12:35:14.137Z,4.90
2022-10-21T12:38:05.657Z,6.27
2022-10-21T12:40:40.103Z,6.80
2022-10-21T12:43:19.954Z,7.23
2022-10-21T12:46:01.917Z,4.23
2022-10-21T12:48:36.458Z,4.33
2022-10-21T12:51:07.499Z,5.37
2022-10-21T12:53:39.375Z,4.13
2022-10-21T12:56:08.664Z,4.20
2022-10-21T12:58:41.355Z,6.47
2022-10-21T13:01:39.871Z,4.30
2022-10-21T13:04:48.862Z,3.60
2022-10-21T13:07:34.409Z,4.77
2022-10-21T13:10:29.503Z,4.07
2022-10-21T13:13:36.490Z,3.97
2022-10-21T13:16:30.331Z,3.43
2022-10-21T13:19:03.297Z,6.47
2022-10-21T13:21:40.509Z,4.80
2022-10-21T13:24:22.072Z,6.20
2022-10-21T13:26:52.513Z,4.07
2022-10-21T13:29:31.590Z,5.93
2022-10-21T13:32:28.476Z,3.10
2022-10-21T13:35:00.145Z,4.57
2022-10-21T13:37:32.858Z,5.20
2022-10-21T13:40:03.412Z,3.50
2022-10-21T13:42:38.040Z,4.80
2022-10-21T13:45:17.241Z,7.87
2022-10-21T13:47:45.981Z,5.50
2022-10-21T13:50:19.501Z,5.00
2022-10-21T13:52:48.879Z,4.97
2022-10-21T13:55:21.497Z,6.20
2022-10-21T13:57:51.515Z,4.33
2022-10-21T14:00:22.063Z,4.47
2022-10-21T14:02:51.413Z,5.27
2022-10-21T14:05:30.883Z,6.87
2022-10-21T14:08:00.737Z,5.83
2022-10-21T14:10:30.556Z,5.53
2022-10-21T14:15:41.639Z,2.50
2022-10-21T14:18:09.854Z,3.70
2022-10-21T14:20:39.140Z,4.40
2022-10-21T14:23:18.900Z,6.80
2022-10-21T14:25:48.791Z,4.07
2022-10-21T14:28:18.949Z,4.20
2022-10-21T14:30:47.141Z,4.93
2022-10-21T14:33:20.602Z,5.13
2022-10-21T14:36:06.360Z,2.73
2022-10-21T14:38:41.053Z,1.77
2022-10-21T14:41:14.766Z,6.07
2022-10-21T14:43:45.354Z,3.10
2022-10-21T14:46:13.422Z,3.90
2022-10-21T14:48:47.471Z,6.07
2022-10-21T14:51:21.270Z,6.53
2022-10-21T14:53:55.844Z,5.07
2022-10-21T14:56:29.884Z,3.00
2022-10-21T14:58:59.906Z,4.10
2022-10-21T15:01:27.971Z,3.47
2022-10-21T15:03:57.798Z,3.77
2022-10-21T15:06:27.604Z,4.37
2022-10-21T15:09:17.037Z,4.73
2022-10-21T15:11:45.901Z,2.10
2022-10-21T15:14:33.193Z,3.50
2022-10-21T15:17:04.651Z,2.27
2022-10-21T15:19:44.164Z,2.17
2022-10-21T15:22:34.774Z,6.50
2022-10-21T15:25:08.903Z,4.30
2022-10-21T15:27:42.591Z,4.00
2022-10-21T15:30:17.477Z,3.40
2022-10-21T15:32:45.502Z,3.53
2022-10-21T15:35:15.432Z,4.50
2022-10-21T15:37:43.333Z,2.90
2022-10-21T15:40:13.183Z,3.70
2022-10-21T15:42:41.174Z,5.47
2022-10-21T15:45:15.208Z,2.90
2022-10-21T15:47:43.310Z,3.57
2022-10-21T15:50:14.991Z,2.60
2022-10-21T15:52:43.011Z,3.60
2022-10-21T15:55:12.888Z,3.90
2022-10-21T15:57:41.930Z,3.37
2022-10-21T16:00:17.591Z,4.87
2022-10-21T16:02:46.029Z,2.23
2022-10-21T16:05:14.613Z,2.73
2022-10-21T16:07:42.832Z,3.63
2022-10-21T16:10:20.237Z,4.07
2022-10-21T16:12:48.774Z,5.70
2022-10-21T16:15:18.680Z,2.33
2022-10-21T16:17:48.723Z,1.60
2022-10-21T16:20:18.762Z,6.10
2022-10-21T16:22:46.651Z,3.60
2022-10-21T16:25:16.334Z,2.83
2022-10-21T16:27:55.766Z,2.90
2022-10-21T16:30:26.438Z,3.43
2022-10-21T16:32:54.475Z,5.80
2022-10-21T16:35:23.038Z,1.73
2022-10-21T16:37:51.840Z,3.10
2022-10-21T16:40:24.326Z,1.90
2022-10-21T16:42:53.092Z,3.83
2022-10-21T16:45:22.949Z,2.57
2022-10-21T16:47:53.166Z,2.63
2022-10-21T16:50:23.586Z,2.17
2022-10-21T16:52:51.609Z,2.87
2022-10-21T16:55:21.019Z,3.00
2022-10-21T16:57:48.896Z,2.20
2022-10-21T17:00:18.081Z,2.20
2022-10-21T17:02:48.958Z,4.27
2022-10-21T17:05:17.017Z,3.37
2022-10-21T17:07:44.891Z,2.67
2022-10-21T17:10:13.130Z,4.90
2022-10-21T17:12:42.681Z,3.40
2022-10-21T17:15:15.000Z,2.70
2022-10-21T17:17:43.065Z,2.00
2022-10-21T17:20:11.971Z,2.40
2022-10-21T17:22:39.846Z,3.50
2022-10-21T17:25:08.347Z,3.50
2022-10-21T17:27:36.443Z,3.87
2022-10-21T17:30:06.652Z,3.57
2022-10-21T17:32:34.491Z,3.70
2022-10-21T17:35:02.928Z,5.30
2022-10-21T17:37:31.316Z,5.37
2022-10-21T17:39:59.414Z,6.80
2022-10-21T17:42:27.354Z,4.43
2022-10-21T17:44:55.133Z,4.00
2022-10-21T17:47:24.500Z,3.60
2022-10-21T17:49:52.331Z,3.50
2022-10-21T17:52:20.471Z,2.90
2022-10-21T17:54:48.395Z,4.25
2022-10-21T17:57:16.513Z,3.90
2022-10-21T17:59:45.090Z,3.33
2022-10-21T18:02:12.990Z,3.73
2022-10-21T18:04:43.389Z,3.70
2022-10-21T18:07:13.241Z,9.57
2022-10-21T18:09:42.255Z,3.30
2022-10-21T18:12:11.071Z,9.20
2022-10-21T18:14:39.151Z,3.80
2022-10-21T18:17:08.410Z,2.83
2022-10-21T18:19:36.558Z,2.57
2022-10-21T18:22:06.025Z,3.13
2022-10-21T18:24:34.033Z,3.67
2022-10-21T18:27:02.185Z,2.77
2022-10-21T18:29:30.131Z,6.00
2022-10-21T18:31:58.005Z,5.03
2022-10-21T18:34:26.828Z,3.53
2022-10-21T18:36:56.435Z,2.90
2022-10-21T18:39:25.877Z,3.13
2022-10-21T18:41:54.901Z,1.50
2022-10-21T18:44:22.894Z,1.70
2022-10-21T18:46:52.505Z,2.90
2022-10-21T18:49:23.184Z,6.40
2022-10-21T18:51:51.228Z,2.00
2022-10-21T18:54:19.277Z,2.30
2022-10-21T18:56:48.480Z,2.10
2022-10-21T18:59:16.284Z,2.17
2022-10-21T19:01:44.368Z,2.00
2022-10-21T19:06:43.144Z,5.00
2022-10-21T19:09:14.953Z,1.57
2022-10-21T19:11:43.997Z,2.00
2022-10-21T19:14:14.664Z,2.33
2022-10-21T19:16:42.799Z,2.90
2022-10-21T19:19:10.929Z,3.67
2022-10-21T19:21:39.221Z,1.57
2022-10-21T19:24:08.411Z,1.67
2022-10-21T19:26:38.897Z,1.53
2022-10-21T19:29:09.510Z,2.90
2022-10-21T19:31:38.923Z,4.33
2022-10-21T19:34:06.996Z,2.07
2022-10-21T19:36:35.777Z,2.43
2022-10-21T19:39:03.853Z,6.60
2022-10-21T19:41:32.008Z,2.40
2022-10-21T19:44:00.519Z,1.77
2022-10-21T19:46:31.687Z,2.03
2022-10-21T19:49:01.975Z,2.30
2022-10-21T19:51:29.946Z,8.20
2022-10-21T19:53:58.050Z,1.40
2022-10-21T19:56:30.803Z,1.83
2022-10-21T19:59:02.654Z,3.03
2022-10-21T20:01:32.310Z,2.90
2022-10-21T20:04:03.140Z,2.27
2022-10-21T20:06:33.232Z,2.10
2022-10-21T20:09:03.196Z,3.57
2022-10-21T20:11:31.643Z,3.27
2022-10-21T20:13:59.949Z,3.07
2022-10-21T20:16:29.288Z,1.40
2022-10-21T20:18:58.275Z,1.93
2022-10-21T20:21:27.916Z,1.53
2022-10-21T20:23:57.657Z,1.37
2022-10-21T20:26:25.641Z,1.83
2022-10-21T20:28:53.901Z,1.87
2022-10-21T20:31:22.482Z,2.40
2022-10-21T20:33:52.134Z,1.00
2022-10-21T20:36:23.095Z,4.10
2022-10-21T20:38:54.514Z,1.83
